Time;durP1;ratioP1;P1;durP2;ratioP2;P2;SDS_P1;SDS_P2;PMS_P1;PMS_P2;Temp;Humidity;BMP_temperature;BMP_pressure;BME280_temperature;BME280_humidity;BME280_pressure;Samples;Min_cycle;Max_cycle;Signal;HPM_P1;HPM_P2
2023/07/20 00:04:47;;;;;;;8.93;4.43;;;;;15.30;100998.00;;;;10113768;29;20742;-75
2023/07/20 00:09:48;;;;;;;8.70;3.97;;;;;15.30;100997.00;;;;10120418;29;20218;-73
2023/07/20 00:14:53;;;;;;;5.93;4.00;;;;;15.30;101007.00;;;;10124499;29;20211;-75
2023/07/20 00:19:54;;;;;;;10.43;4.80;;;;;15.30;101009.00;;;;10113317;29;20662;-73
2023/07/20 00:24:56;;;;;;;11.40;5.87;;;;;15.30;101005.00;;;;10131774;29;20223;-75
2023/07/20 00:29:57;;;;;;;12.30;4.43;;;;;15.30;101002.00;;;;10118044;29;20199;-75
2023/07/20 00:34:59;;;;;;;7.17;4.23;;;;;15.30;101006.00;;;;10169535;29;20199;-74
2023/07/20 00:40:00;;;;;;;9.33;4.47;;;;;15.30;101001.00;;;;10149141;29;20266;-75
2023/07/20 00:45:02;;;;;;;10.70;4.57;;;;;15.30;101004.00;;;;10145902;29;20228;-75
2023/07/20 00:50:05;;;;;;;6.97;4.57;;;;;15.30;101003.00;;;;10094587;29;20219;-76
2023/07/20 00:55:07;;;;;;;11.23;4.47;;;;;15.30;101009.00;;;;10130950;29;20213;-75
2023/07/20 01:00:09;;;;;;;8.70;4.93;;;;;15.30;101001.00;;;;10116325;29;20218;-73
2023/07/20 01:05:12;;;;;;;8.20;4.57;;;;;15.20;100998.00;;;;10111761;29;20238;-73
2023/07/20 01:10:47;;;;;;;10.80;4.50;;;;;15.10;100996.00;;;;10132940;29;20260;-73
2023/07/20 01:16:01;;;;;;;7.80;5.03;;;;;15.10;100995.00;;;;10096612;29;20243;-72
2023/07/20 01:21:08;;;;;;;9.53;4.77;;;;;15.20;100999.00;;;;10122746;29;20230;-73
2023/07/20 01:26:19;;;;;;;16.60;5.57;;;;;15.20;101006.00;;;;10130068;29;20203;-75
2023/07/20 01:31:29;;;;;;;11.13;5.27;;;;;15.20;101011.00;;;;10104733;29;20242;-74
2023/07/20 01:36:34;;;;;;;9.47;5.43;;;;;15.20;101012.00;;;;10116113;29;20211;-75
2023/07/20 01:41:35;;;;;;;9.10;5.27;;;;;15.20;101007.00;;;;10130519;29;20270;-74
2023/07/20 01:46:37;;;;;;;11.17;5.93;;;;;15.10;101005.00;;;;10132645;29;20263;-73
2023/07/20 01:51:38;;;;;;;9.43;5.60;;;;;15.00;100997.00;;;;10130435;29;20543;-73
2023/07/20 01:56:39;;;;;;;12.07;5.63;;;;;15.00;100995.00;;;;10128918;29;20231;-77
2023/07/20 02:01:41;;;;;;;11.00;5.80;;;;;15.00;100996.00;;;;10113179;29;20529;-76
2023/07/20 02:06:42;;;;;;;16.97;6.13;;;;;15.00;100990.00;;;;10130014;29;20210;-72
2023/07/20 02:11:45;;;;;;;12.67;6.37;;;;;15.00;101000.00;;;;10124744;29;20219;-72
2023/07/20 02:16:46;;;;;;;18.73;7.33;;;;;15.00;101003.00;;;;10107715;29;20299;-72
2023/07/20 02:21:48;;;;;;;12.10;7.10;;;;;15.00;101009.00;;;;10114298;29;20244;-73
2023/07/20 02:26:49;;;;;;;13.97;7.30;;;;;14.90;101005.00;;;;10101465;29;20204;-72
2023/07/20 02:31:50;;;;;;;19.03;8.87;;;;;14.90;101011.00;;;;10133662;29;20212;-73
2023/07/20 02:36:52;;;;;;;17.70;8.73;;;;;14.90;101000.00;;;;10128892;29;20200;-73
2023/07/20 02:41:53;;;;;;;16.73;9.47;;;;;14.90;101002.00;;;;10132188;29;20227;-73
2023/07/20 02:46:55;;;;;;;22.70;9.57;;;;;14.90;101006.00;;;;10117903;29;20214;-73
2023/07/20 02:51:56;;;;;;;19.20;10.33;;;;;14.80;101008.00;;;;10124044;29;20210;-73
2023/07/20 02:56:57;;;;;;;20.87;10.13;;;;;14.70;101003.00;;;;10126027;29;20212;-72
2023/07/20 03:01:59;;;;;;;18.77;10.53;;;;;14.70;100997.00;;;;10121218;29;20314;-73
2023/07/20 03:07:00;;;;;;;19.17;10.57;;;;;14.70;100997.00;;;;10135706;29;20207;-73
2023/07/20 03:12:03;;;;;;;24.27;11.63;;;;;14.70;100999.00;;;;10138897;29;20200;-72
2023/07/20 03:17:05;;;;;;;21.67;11.57;;;;;14.70;100999.00;;;;10119464;29;20215;-73
2023/07/20 03:22:07;;;;;;;21.97;11.90;;;;;14.70;101005.00;;;;10106961;29;20231;-73
2023/07/20 03:27:08;;;;;;;24.37;11.70;;;;;14.70;101003.00;;;;10147578;29;20199;-72
2023/07/20 03:32:10;;;;;;;18.43;11.33;;;;;14.70;101005.00;;;;10126189;29;20212;-73
2023/07/20 03:37:13;;;;;;;19.33;12.00;;;;;14.70;101016.00;;;;10134114;29;20220;-73
2023/07/20 03:42:14;;;;;;;24.50;12.50;;;;;14.70;101014.00;;;;10134737;29;20220;-73
2023/07/20 03:47:15;;;;;;;23.57;12.70;;;;;14.70;101013.00;;;;10130832;29;20330;-72
2023/07/20 03:52:17;;;;;;;20.97;12.53;;;;;14.70;101009.00;;;;10111681;29;20757;-73
2023/07/20 03:57:18;;;;;;;24.30;13.03;;;;;14.80;101009.00;;;;10103169;29;20202;-73
2023/07/20 04:02:19;;;;;;;24.23;14.27;;;;;14.90;101013.00;;;;10116202;29;20230;-73
2023/07/20 04:07:21;;;;;;;26.00;14.30;;;;;14.90;101017.00;;;;10130630;29;20208;-74
2023/07/20 04:12:22;;;;;;;25.93;14.90;;;;;15.00;101016.00;;;;10119064;29;20200;-73
2023/07/20 04:17:24;;;;;;;25.23;13.63;;;;;15.00;101012.00;;;;10110763;29;20255;-73
2023/07/20 04:22:27;;;;;;;29.00;15.30;;;;;15.10;101017.00;;;;10116799;29;20309;-74
2023/07/20 04:27:28;;;;;;;27.57;15.27;;;;;15.20;101016.00;;;;10126707;29;20199;-73
2023/07/20 04:32:30;;;;;;;27.73;16.03;;;;;15.30;101024.00;;;;10131309;29;20207;-73
2023/07/20 04:37:31;;;;;;;24.70;16.17;;;;;15.40;101021.00;;;;10131368;29;20252;-72
2023/07/20 04:42:36;;;;;;;26.00;15.63;;;;;15.50;101015.00;;;;10113712;29;20233;-74
2023/07/20 04:47:37;;;;;;;28.40;15.63;;;;;15.60;101010.00;;;;10114336;29;20208;-74
2023/07/20 04:52:38;;;;;;;20.70;15.07;;;;;15.70;101010.00;;;;10129794;29;20263;-72
2023/07/20 04:57:48;;;;;;;27.55;16.67;;;;;15.80;101015.00;;;;10130609;29;20614;-72
2023/07/20 05:02:51;;;;;;;27.42;15.98;;;;;15.90;101011.00;;;;10129927;29;20224;-73
2023/07/20 05:07:54;;;;;;;27.95;15.30;;;;;16.00;101019.00;;;;10128619;29;20219;-73
2023/07/20 05:12:56;;;;;;;31.15;17.50;;;;;16.00;101027.00;;;;10104541;29;20258;-72
2023/07/20 05:17:57;;;;;;;24.05;16.38;;;;;16.10;101016.00;;;;10119289;29;20207;-74
2023/07/20 05:22:59;;;;;;;26.17;15.18;;;;;16.40;101022.00;;;;10138939;29;20218;-73
2023/07/20 05:28:01;;;;;;;28.20;15.68;;;;;16.60;101029.00;;;;10157291;29;20204;-73
2023/07/20 05:33:03;;;;;;;22.88;14.73;;;;;16.80;101024.00;;;;10130817;29;20211;-73
2023/07/20 05:38:05;;;;;;;21.77;14.48;;;;;16.90;101027.00;;;;10116898;29;20208;-75
2023/07/20 05:43:06;;;;;;;20.20;14.05;;;;;16.90;101021.00;;;;10148318;29;20227;-74
2023/07/20 05:48:11;;;;;;;21.17;13.75;;;;;16.70;101028.00;;;;10114990;29;20318;-73
2023/07/20 05:53:12;;;;;;;17.63;13.25;;;;;16.80;101029.00;;;;10089661;29;20211;-73
2023/07/20 05:58:13;;;;;;;19.43;13.40;;;;;17.00;101036.00;;;;10118661;29;20210;-73
2023/07/20 06:03:16;;;;;;;24.45;13.02;;;;;17.20;101032.00;;;;10117264;29;20224;-72
2023/07/20 06:08:17;;;;;;;16.55;12.50;;;;;17.40;101030.00;;;;10117165;29;20212;-73
2023/07/20 06:13:18;;;;;;;19.50;12.25;;;;;17.50;101026.00;;;;10166714;29;20210;-73
2023/07/20 06:18:21;;;;;;;19.65;12.45;;;;;17.50;101035.00;;;;10137490;29;20579;-75
2023/07/20 06:23:22;;;;;;;20.02;12.95;;;;;17.50;101033.00;;;;10117954;29;20220;-73
2023/07/20 06:28:24;;;;;;;15.45;12.43;;;;;17.60;101038.00;;;;10130166;29;20199;-75
2023/07/20 06:33:25;;;;;;;16.58;11.23;;;;;18.10;101036.00;;;;10111561;29;20251;-74
2023/07/20 06:38:27;;;;;;;21.45;11.00;;;;;18.40;101040.00;;;;10122923;29;20207;-75
2023/07/20 06:43:31;;;;;;;10.90;8.52;;;;;18.50;101039.00;;;;10140792;29;20223;-74
2023/07/20 06:48:35;;;;;;;13.60;8.75;;;;;18.50;101046.00;;;;10130546;29;20641;-75
2023/07/20 06:53:57;;;;;;;14.02;10.02;;;;;18.60;101050.00;;;;10116805;29;20302;-73
2023/07/20 06:58:58;;;;;;;11.23;9.20;;;;;19.10;101046.00;;;;10128609;29;20256;-72
2023/07/20 07:03:59;;;;;;;12.63;10.55;;;;;19.70;101060.00;;;;10122769;29;20220;-73
2023/07/20 07:09:01;;;;;;;12.98;10.45;;;;;20.80;101056.00;;;;10140249;29;20203;-73
2023/07/20 07:14:03;;;;;;;11.52;9.13;;;;;20.80;101061.00;;;;10136358;29;20298;-75
2023/07/20 07:19:05;;;;;;;9.48;7.95;;;;;20.60;101055.00;;;;10136251;29;20259;-72
2023/07/20 07:24:07;;;;;;;10.40;7.63;;;;;20.10;101059.00;;;;10125772;29;20295;-72
2023/07/20 07:29:08;;;;;;;9.23;6.80;;;;;20.20;101058.00;;;;10107837;29;20219;-72
2023/07/20 07:34:10;;;;;;;10.05;8.40;;;;;20.80;101049.00;;;;10111547;29;20579;-72
2023/07/20 07:39:11;;;;;;;9.63;7.50;;;;;22.70;101047.00;;;;10107807;29;20203;-73
2023/07/20 07:44:15;;;;;;;8.70;6.45;;;;;23.60;101051.00;;;;10137747;29;20258;-74
2023/07/20 07:49:18;;;;;;;6.97;5.60;;;;;22.90;101052.00;;;;10138483;29;20200;-74
2023/07/20 07:54:19;;;;;;;5.78;4.25;;;;;22.10;101051.00;;;;10101765;29;20196;-73
2023/07/20 07:59:21;;;;;;;4.22;3.75;;;;;21.80;101058.00;;;;10100983;29;20204;-74
2023/07/20 08:04:22;;;;;;;3.97;3.50;;;;;23.00;101059.00;;;;10118331;29;20219;-71
2023/07/20 08:09:24;;;;;;;4.00;3.17;;;;;23.20;101062.00;;;;10138387;29;20200;-72
2023/07/20 08:14:26;;;;;;;4.38;3.47;;;;;23.60;101058.00;;;;10137322;29;20207;-71
2023/07/20 08:19:27;;;;;;;3.45;3.05;;;;;24.30;101062.00;;;;10099189;29;20537;-71
2023/07/20 08:24:29;;;;;;;2.30;1.50;;;;;25.30;101057.00;;;;10130767;29;20748;-71
2023/07/20 08:29:30;;;;;;;1.55;1.45;;;;;25.50;101064.00;;;;10135941;29;20207;-72
2023/07/20 08:34:32;;;;;;;2.85;1.40;;;;;24.80;101058.00;;;;10136073;29;20306;-72
2023/07/20 08:39:34;;;;;;;4.60;1.30;;;;;25.90;101057.00;;;;10135070;29;20259;-72
2023/07/20 08:44:40;;;;;;;1.80;1.17;;;;;26.50;101046.00;;;;10137330;29;20292;-72
2023/07/20 08:49:42;;;;;;;1.58;1.40;;;;;26.70;101041.00;;;;10122786;29;20204;-74
2023/07/20 08:54:43;;;;;;;1.10;1.10;;;;;27.50;101050.00;;;;10134555;29;20222;-74
2023/07/20 08:59:45;;;;;;;5.13;1.52;;;;;28.60;101057.00;;;;10134174;29;20198;-73
2023/07/20 09:04:47;;;;;;;1.30;1.20;;;;;26.10;101049.00;;;;10132206;29;20231;-74
2023/07/20 09:09:48;;;;;;;1.52;1.10;;;;;23.10;101057.00;;;;10134082;29;20203;-74
2023/07/20 09:14:49;;;;;;;1.95;1.10;;;;;22.20;101052.00;;;;10169253;29;20223;-73
2023/07/20 09:19:51;;;;;;;2.28;1.52;;;;;23.60;101041.00;;;;10125770;29;20340;-73
2023/07/20 09:24:53;;;;;;;1.63;1.48;;;;;25.40;101037.00;;;;10126868;29;20230;-74
2023/07/20 09:29:56;;;;;;;2.22;1.58;;;;;26.70;101050.00;;;;10133355;29;20206;-74
2023/07/20 09:34:57;;;;;;;1.92;1.50;;;;;26.50;101053.00;;;;10151635;29;20214;-73
2023/07/20 09:40:19;;;;;;;1.98;1.58;;;;;26.10;101037.00;;;;10119161;29;20263;-76
2023/07/20 09:45:21;;;;;;;2.10;1.15;;;;;27.30;101037.00;;;;10130621;29;20222;-74
2023/07/20 09:50:42;;;;;;;1.50;1.33;;;;;28.40;101035.00;;;;10124373;29;20257;-75
2023/07/20 09:55:44;;;;;;;2.60;1.42;;;;;27.40;101036.00;;;;10127814;29;20208;-75
2023/07/20 10:00:50;;;;;;;1.58;1.25;;;;;27.20;101029.00;;;;10116280;29;20211;-74
2023/07/20 10:05:58;;;;;;;1.30;1.20;;;;;27.70;101032.00;;;;10141835;29;20219;-74
2023/07/20 10:11:00;;;;;;;3.80;1.00;;;;;28.00;101018.00;;;;10139999;29;20231;-75
2023/07/20 10:16:06;;;;;;;1.20;0.90;;;;;27.90;101025.00;;;;10140714;29;20200;-75
2023/07/20 10:21:09;;;;;;;3.25;1.30;;;;;27.30;101021.00;;;;10141344;29;20207;-74
2023/07/20 10:26:14;;;;;;;1.15;0.82;;;;;27.40;101005.00;;;;10140648;29;20222;-74
2023/07/20 10:31:16;;;;;;;1.52;0.93;;;;;27.40;101007.00;;;;10141299;29;20199;-74
2023/07/20 10:36:26;;;;;;;2.72;1.00;;;;;27.90;101012.00;;;;10141145;29;20200;-74
2023/07/20 10:41:40;;;;;;;0.98;0.98;;;;;27.90;101004.00;;;;10141254;29;20195;-74
2023/07/20 10:46:46;;;;;;;0.90;0.80;;;;;27.80;101000.00;;;;10140467;29;20615;-75
2023/07/20 10:51:55;;;;;;;0.85;0.85;;;;;28.20;100994.00;;;;10140620;29;20532;-74
2023/07/20 10:57:17;;;;;;;1.13;1.00;;;;;28.10;100993.00;;;;10136811;29;20255;-74
2023/07/20 11:02:20;;;;;;;1.08;0.68;;;;;28.50;100977.00;;;;10139463;29;20555;-73
2023/07/20 11:07:47;;;;;;;1.08;0.90;;;;;26.50;100985.00;;;;10110449;29;20204;-74
2023/07/20 11:13:23;;;;;;;2.20;0.88;;;;;25.40;100985.00;;;;10137321;29;20583;-74
2023/07/20 11:18:28;;;;;;;1.80;0.70;;;;;24.70;100984.00;;;;10133620;29;20551;-73
2023/07/20 11:23:32;;;;;;;1.05;0.80;;;;;24.00;100980.00;;;;10101329;29;20697;-74
2023/07/20 11:28:34;;;;;;;0.82;0.70;;;;;24.80;100975.00;;;;10133029;29;20215;-73
2023/07/20 11:33:35;;;;;;;0.77;0.60;;;;;26.20;100965.00;;;;10139098;29;20768;-74
2023/07/20 11:38:36;;;;;;;1.25;0.90;;;;;26.00;100967.00;;;;10137397;29;20558;-74
2023/07/20 11:43:38;;;;;;;1.10;0.80;;;;;25.50;100962.00;;;;10138263;29;20234;-74
2023/07/20 11:48:39;;;;;;;1.52;0.88;;;;;25.20;100965.00;;;;10137060;29;20562;-73
2023/07/20 11:53:42;;;;;;;0.95;0.90;;;;;25.00;100964.00;;;;10138694;29;20263;-73
2023/07/20 11:58:44;;;;;;;1.35;0.80;;;;;25.00;100957.00;;;;10138026;29;20203;-74
2023/07/20 12:03:47;;;;;;;1.33;0.73;;;;;24.80;100948.00;;;;10137723;29;20234;-73
2023/07/20 12:08:49;;;;;;;2.55;0.93;;;;;24.80;100945.00;;;;10135830;29;20234;-74
2023/07/20 12:13:50;;;;;;;2.00;0.80;;;;;25.20;100945.00;;;;10137328;29;20239;-74
2023/07/20 12:19:02;;;;;;;1.80;0.90;;;;;25.40;100941.00;;;;10137651;29;20614;-74
2023/07/20 12:24:04;;;;;;;1.63;0.90;;;;;25.70;100935.00;;;;10137344;29;20314;-74
2023/07/20 12:29:05;;;;;;;0.77;0.70;;;;;25.70;100932.00;;;;10137626;29;20242;-74
2023/07/20 12:34:14;;;;;;;2.08;0.80;;;;;25.90;100926.00;;;;10667588;27;20350;-74
2023/07/20 12:39:16;;;;;;;1.08;1.00;;;;;26.80;100923.00;;;;10660303;27;20633;-73
2023/07/20 12:44:17;;;;;;;1.17;0.90;;;;;27.80;100914.00;;;;10660237;27;20191;-73
2023/07/20 12:49:19;;;;;;;2.55;1.23;;;;;27.90;100916.00;;;;10644725;27;20195;-75
2023/07/20 12:54:20;;;;;;;1.10;1.00;;;;;27.90;100915.00;;;;10661716;27;20621;-74
2023/07/20 12:59:21;;;;;;;0.90;0.80;;;;;27.40;100919.00;;;;10660442;27;20206;-74
2023/07/20 13:04:23;;;;;;;1.60;1.23;;;;;26.80;100916.00;;;;10622118;27;20553;-75
2023/07/20 13:09:25;;;;;;;2.35;1.00;;;;;26.10;100910.00;;;;10611310;27;20198;-75
2023/07/20 13:14:26;;;;;;;1.67;1.10;;;;;24.80;100899.00;;;;10577948;27;20220;-75
2023/07/20 13:19:28;;;;;;;1.63;1.27;;;;;24.10;100914.00;;;;10579166;27;20256;-75
2023/07/20 13:24:31;;;;;;;2.85;1.50;;;;;24.40;100895.00;;;;10597769;27;20188;-75
2023/07/20 13:29:33;;;;;;;1.75;1.15;;;;;25.00;100892.00;;;;10610816;27;20244;-72
2023/07/20 13:34:34;;;;;;;1.83;1.13;;;;;24.80;100892.00;;;;10573565;27;20188;-73
2023/07/20 13:39:36;;;;;;;1.90;1.45;;;;;24.10;100895.00;;;;10574837;27;20586;-72
2023/07/20 13:44:37;;;;;;;1.50;1.40;;;;;23.10;100904.00;;;;10573316;28;20200;-72
2023/07/20 13:49:39;;;;;;;2.08;1.65;;;;;22.20;100896.00;;;;10585033;28;20265;-72
2023/07/20 13:54:48;;;;;;;1.33;1.23;;;;;21.70;100903.00;;;;10567959;27;20211;-75
2023/07/20 13:59:54;;;;;;;1.60;1.50;;;;;21.40;100896.00;;;;10584938;27;20196;-75
2023/07/20 14:04:55;;;;;;;2.80;1.60;;;;;21.40;100883.00;;;;10578888;27;20697;-75
2023/07/20 14:10:00;;;;;;;3.45;1.95;;;;;21.60;100876.00;;;;10538703;28;20259;-75
2023/07/20 14:15:05;;;;;;;2.78;1.90;;;;;21.80;100861.00;;;;10569218;27;20188;-75
2023/07/20 14:20:08;;;;;;;2.15;1.77;;;;;22.10;100864.00;;;;10586730;27;20641;-76
2023/07/20 14:25:23;;;;;;;2.28;2.08;;;;;22.40;100859.00;;;;10570175;27;20549;-75
2023/07/20 14:30:24;;;;;;;2.95;2.28;;;;;22.90;100859.00;;;;10582859;27;20222;-75
2023/07/20 14:35:26;;;;;;;2.22;1.77;;;;;23.90;100855.00;;;;10581361;27;20551;-75
2023/07/20 14:40:27;;;;;;;2.22;2.10;;;;;25.20;100855.00;;;;10560108;27;20277;-76
2023/07/20 14:45:28;;;;;;;1.90;1.80;;;;;25.90;100848.00;;;;10582506;27;20215;-75
2023/07/20 14:50:30;;;;;;;2.58;2.38;;;;;26.20;100858.00;;;;10563464;27;20245;-75
2023/07/20 14:55:31;;;;;;;3.30;2.00;;;;;26.60;100850.00;;;;10576171;27;20200;-75
2023/07/20 15:00:32;;;;;;;2.22;2.03;;;;;26.30;100852.00;;;;10572559;27;20230;-75
2023/07/20 15:05:36;;;;;;;1.38;1.30;;;;;25.80;100845.00;;;;10559174;27;20199;-75
2023/07/20 15:10:37;;;;;;;2.08;1.70;;;;;25.30;100828.00;;;;10582311;27;20246;-75
2023/07/20 15:15:39;;;;;;;2.58;1.85;;;;;25.10;100824.00;;;;10566618;27;20294;-74
2023/07/20 15:20:40;;;;;;;1.63;1.45;;;;;24.80;100831.00;;;;10568182;27;20196;-75
2023/07/20 15:25:41;;;;;;;1.52;1.42;;;;;24.70;100826.00;;;;10585104;27;20203;-75
2023/07/20 15:30:42;;;;;;;2.47;1.52;;;;;24.60;100818.00;;;;10585063;27;20200;-75
2023/07/20 15:35:47;;;;;;;1.40;1.30;;;;;24.20;100821.00;;;;10568141;27;20219;-75
2023/07/20 15:40:51;;;;;;;3.65;1.80;;;;;23.60;100813.00;;;;10551588;27;20257;-76
2023/07/20 15:46:01;;;;;;;2.42;1.70;;;;;23.00;100822.00;;;;10581815;27;20218;-75
2023/07/20 15:51:06;;;;;;;2.05;1.67;;;;;22.50;100821.00;;;;10565824;27;20227;-75
2023/07/20 15:56:08;;;;;;;2.97;1.73;;;;;22.00;100836.00;;;;10582185;27;20191;-75
2023/07/20 16:01:09;;;;;;;5.40;1.80;;;;;21.10;100858.00;;;;10582872;27;20278;-75
2023/07/20 16:06:10;;;;;;;3.13;2.80;;;;;18.80;100888.00;;;;10581387;27;20543;-75
2023/07/20 16:11:11;;;;;;;5.13;3.40;;;;;17.30;100884.00;;;;10561271;27;20220;-75
2023/07/20 16:16:13;;;;;;;4.32;3.75;;;;;16.70;100883.00;;;;10572626;27;20192;-73
2023/07/20 16:21:14;;;;;;;4.28;3.88;;;;;16.20;100891.00;;;;10570188;27;20223;-74
2023/07/20 16:26:16;;;;;;;4.13;3.72;;;;;15.90;100931.00;;;;10576879;27;20200;-73
2023/07/20 16:31:18;;;;;;;4.25;3.85;;;;;15.80;100966.00;;;;10557643;27;20610;-74
2023/07/20 16:36:19;;;;;;;5.15;4.10;;;;;15.90;100969.00;;;;10556414;27;20199;-74
2023/07/20 16:41:20;;;;;;;5.68;4.32;;;;;16.00;100957.00;;;;10573355;27;20299;-74
2023/07/20 16:46:42;;;;;;;5.53;4.35;;;;;16.10;100947.00;;;;10539275;27;20650;-73
2023/07/20 16:51:46;;;;;;;4.82;4.22;;;;;16.40;100935.00;;;;10547587;28;20212;-74
2023/07/20 16:56:47;;;;;;;5.38;4.88;;;;;16.70;100925.00;;;;10538787;28;20193;-73
2023/07/20 17:01:51;;;;;;;6.28;5.10;;;;;16.80;100908.00;;;;10538197;28;20189;-73
2023/07/20 17:06:53;;;;;;;6.00;4.80;;;;;16.70;100904.00;;;;10544315;27;20204;-74
2023/07/20 17:11:54;;;;;;;6.85;4.72;;;;;16.70;100888.00;;;;10532207;28;20299;-73
2023/07/20 17:16:56;;;;;;;5.43;4.93;;;;;16.80;100891.00;;;;10554803;27;20264;-74
2023/07/20 17:21:57;;;;;;;5.53;4.65;;;;;16.80;100898.00;;;;10565252;27;20230;-75
2023/07/20 17:26:58;;;;;;;6.53;4.80;;;;;16.70;100896.00;;;;10553347;27;20276;-74
2023/07/20 17:32:03;;;;;;;5.88;4.47;;;;;16.70;100885.00;;;;10587473;27;20204;-74
2023/07/20 17:37:04;;;;;;;6.82;4.95;;;;;16.70;100876.00;;;;10587545;27;20207;-74
2023/07/20 17:42:09;;;;;;;7.68;5.57;;;;;16.60;100851.00;;;;10571631;27;20235;-74
2023/07/20 17:47:14;;;;;;;6.82;5.80;;;;;16.80;100831.00;;;;10589090;27;20597;-74
2023/07/20 17:52:18;;;;;;;6.75;6.03;;;;;17.20;100830.00;;;;10571383;27;20314;-73
2023/07/20 17:57:19;;;;;;;7.40;6.70;;;;;17.80;100831.00;;;;10588889;27;20204;-74
2023/07/20 18:02:25;;;;;;;7.55;6.85;;;;;18.00;100829.00;;;;10587578;27;20196;-74
2023/07/20 18:07:26;;;;;;;7.80;6.80;;;;;18.10;100828.00;;;;10588354;27;20207;-73
2023/07/20 18:12:27;;;;;;;7.38;6.68;;;;;18.10;100819.00;;;;10586765;27;20239;-74
2023/07/20 18:17:29;;;;;;;6.93;6.25;;;;;18.10;100820.00;;;;10586315;27;20188;-74
2023/07/20 18:22:30;;;;;;;7.03;6.38;;;;;18.00;100822.00;;;;10586251;27;20227;-74
2023/07/20 18:27:32;;;;;;;7.15;6.55;;;;;17.90;100813.00;;;;10586858;27;20196;-74
2023/07/20 18:32:33;;;;;;;10.18;6.70;;;;;17.80;100820.00;;;;10585406;27;20238;-74
2023/07/20 18:37:35;;;;;;;9.90;7.18;;;;;17.80;100818.00;;;;10552309;27;20199;-73
2023/07/20 18:42:36;;;;;;;7.55;6.95;;;;;17.70;100820.00;;;;10586173;27;20625;-74
2023/07/20 18:47:39;;;;;;;8.20;7.40;;;;;17.60;100824.00;;;;10585631;27;20556;-74
2023/07/20 18:52:40;;;;;;;8.05;7.28;;;;;17.50;100828.00;;;;10566972;27;20252;-74
2023/07/20 18:57:43;;;;;;;7.93;6.70;;;;;17.40;100828.00;;;;10568175;27;20613;-74
2023/07/20 19:02:45;;;;;;;7.65;6.90;;;;;17.30;100822.00;;;;10584603;27;20332;-74
2023/07/20 19:07:47;;;;;;;12.32;6.78;;;;;17.10;100828.00;;;;10584638;27;20220;-74
2023/07/20 19:12:48;;;;;;;7.43;6.53;;;;;16.90;100824.00;;;;10568020;27;20228;-74
2023/07/20 19:17:49;;;;;;;9.38;6.72;;;;;16.70;100832.00;;;;10584319;27;20195;-74
2023/07/20 19:22:51;;;;;;;7.85;7.05;;;;;16.50;100836.00;;;;10566556;27;20196;-74
2023/07/20 19:27:52;;;;;;;9.50;7.10;;;;;16.30;100837.00;;;;10566349;27;20196;-74
2023/07/20 19:32:53;;;;;;;10.15;8.45;;;;;16.10;100845.00;;;;10549652;27;20648;-74
2023/07/20 19:37:58;;;;;;;10.65;8.13;;;;;15.90;100846.00;;;;10584104;27;20192;-74
2023/07/20 19:43:00;;;;;;;8.88;8.07;;;;;15.80;100845.00;;;;10565551;27;20657;-74
2023/07/20 19:48:06;;;;;;;13.45;8.80;;;;;15.60;100857.00;;;;10583445;27;20204;-74
2023/07/20 19:53:07;;;;;;;9.57;8.68;;;;;15.50;100852.00;;;;10566026;27;20226;-74
2023/07/20 19:58:28;;;;;;;9.48;8.65;;;;;15.30;100853.00;;;;10566418;27;20203;-73
2023/07/20 20:03:29;;;;;;;11.10;10.00;;;;;15.30;100851.00;;;;10584088;27;20658;-74
2023/07/20 20:08:34;;;;;;;11.00;9.90;;;;;15.20;100862.00;;;;10567093;27;20198;-73
2023/07/20 20:13:35;;;;;;;12.07;10.30;;;;;15.10;100874.00;;;;10583807;27;20222;-73
2023/07/20 20:18:42;;;;;;;12.20;10.77;;;;;15.10;100863.00;;;;10583126;27;20224;-73
2023/07/20 20:23:44;;;;;;;12.93;11.50;;;;;15.00;100859.00;;;;10566000;27;20216;-73
2023/07/20 20:28:45;;;;;;;12.77;11.47;;;;;15.00;100863.00;;;;10583285;27;20227;-73
2023/07/20 20:33:47;;;;;;;12.93;11.68;;;;;14.90;100865.00;;;;10582674;27;20695;-73
2023/07/20 20:38:48;;;;;;;12.67;11.37;;;;;14.80;100866.00;;;;10582120;27;20203;-73
2023/07/20 20:43:50;;;;;;;14.77;12.33;;;;;14.70;100851.00;;;;10582029;27;20192;-73
2023/07/20 20:48:51;;;;;;;17.07;13.77;;;;;14.60;100838.00;;;;10564128;27;20204;-74
2023/07/20 20:53:52;;;;;;;16.93;15.17;;;;;14.50;100844.00;;;;10585910;27;20302;-74
2023/07/20 20:58:53;;;;;;;15.73;14.13;;;;;14.50;100837.00;;;;10588821;27;20669;-73
2023/07/20 21:03:55;;;;;;;15.57;13.80;;;;;14.50;100831.00;;;;10588362;27;20213;-73
2023/07/20 21:08:56;;;;;;;16.77;15.00;;;;;14.40;100826.00;;;;10570864;27;20654;-74
2023/07/20 21:13:57;;;;;;;19.70;17.63;;;;;14.40;100829.00;;;;10588351;27;20253;-74
2023/07/20 21:18:59;;;;;;;20.17;17.90;;;;;14.50;100823.00;;;;10588096;27;20246;-74
2023/07/20 21:24:00;;;;;;;24.10;18.93;;;;;14.50;100814.00;;;;10570570;27;20546;-74
2023/07/20 21:29:02;;;;;;;20.27;18.17;;;;;14.50;100810.00;;;;10588577;27;20187;-74
2023/07/20 21:34:03;;;;;;;21.13;18.83;;;;;14.50;100807.00;;;;10570896;27;20210;-74
2023/07/20 21:39:07;;;;;;;20.73;16.80;;;;;14.50;100815.00;;;;10588312;27;20196;-74
2023/07/20 21:44:08;;;;;;;21.53;17.27;;;;;14.40;100810.00;;;;10587839;27;20192;-74
2023/07/20 21:49:09;;;;;;;21.20;18.80;;;;;14.30;100811.00;;;;10587798;27;20196;-74
2023/07/20 21:54:11;;;;;;;21.60;18.43;;;;;14.30;100803.00;;;;10587557;27;20240;-74
2023/07/20 21:59:12;;;;;;;21.40;19.17;;;;;14.30;100809.00;;;;10553503;27;20196;-73
2023/07/20 22:04:14;;;;;;;21.70;18.33;;;;;14.30;100811.00;;;;10568894;27;20189;-73
2023/07/20 22:09:16;;;;;;;20.77;18.63;;;;;14.30;100798.00;;;;10586525;27;20279;-73
2023/07/20 22:14:17;;;;;;;21.37;19.27;;;;;14.30;100798.00;;;;10569612;27;20643;-74
2023/07/20 22:19:19;;;;;;;21.70;19.10;;;;;14.20;100792.00;;;;10571497;27;20207;-73
2023/07/20 22:24:20;;;;;;;21.83;18.00;;;;;14.10;100792.00;;;;10588070;27;20253;-74
2023/07/20 22:29:21;;;;;;;20.50;18.23;;;;;14.10;100795.00;;;;10586977;27;20211;-74
2023/07/20 22:34:23;;;;;;;23.87;18.83;;;;;14.10;100797.00;;;;10586478;27;20566;-73
2023/07/20 22:39:25;;;;;;;23.97;20.07;;;;;14.10;100783.00;;;;10587202;27;20196;-73
2023/07/20 22:44:27;;;;;;;20.73;18.53;;;;;14.00;100792.00;;;;10585817;27;20184;-74
2023/07/20 22:49:30;;;;;;;22.40;18.27;;;;;13.90;100782.00;;;;10585788;27;20557;-74
2023/07/20 22:54:31;;;;;;;21.20;19.10;;;;;13.90;100785.00;;;;10585459;27;20222;-74
2023/07/20 22:59:32;;;;;;;22.67;18.30;;;;;13.90;100783.00;;;;10550302;27;20199;-74
2023/07/20 23:04:34;;;;;;;21.40;19.20;;;;;13.90;100781.00;;;;10585309;27;20184;-73
2023/07/20 23:09:38;;;;;;;23.07;18.73;;;;;13.90;100785.00;;;;10585091;27;20546;-73
2023/07/20 23:14:41;;;;;;;22.00;19.70;;;;;13.90;100787.00;;;;10565912;27;20208;-73
2023/07/20 23:19:42;;;;;;;23.70;20.20;;;;;13.90;100786.00;;;;10567166;27;20200;-73
2023/07/20 23:24:44;;;;;;;22.47;19.63;;;;;13.80;100777.00;;;;10567250;27;20203;-73
2023/07/20 23:29:45;;;;;;;22.47;20.07;;;;;13.80;100775.00;;;;10583651;27;20530;-74
2023/07/20 23:34:47;;;;;;;26.67;19.70;;;;;13.80;100774.00;;;;10566294;27;20713;-74
2023/07/20 23:39:49;;;;;;;21.73;18.47;;;;;13.80;100777.00;;;;10549051;27;20204;-74
2023/07/20 23:44:50;;;;;;;23.40;17.97;;;;;13.70;100770.00;;;;10549470;27;20282;-74
2023/07/20 23:49:51;;;;;;;24.37;18.50;;;;;13.60;100767.00;;;;10583232;27;20228;-73
2023/07/20 23:54:53;;;;;;;21.50;18.67;;;;;13.50;100762.00;;;;10565570;27;20184;-74
2023/07/20 23:59:54;;;;;;;19.30;17.40;;;;;13.50;100761.00;;;;10582662;27;20279;-73
